createdAt,value
2024-01-29T00:00:12.436Z,22.47
2024-01-29T00:01:12.660Z,22.46
2024-01-29T00:02:12.571Z,22.44
2024-01-29T00:03:12.648Z,22.43
2024-01-29T00:04:12.768Z,22.43
2024-01-29T00:05:12.716Z,22.43
2024-01-29T00:06:12.834Z,22.43
2024-01-29T00:07:12.915Z,22.42
2024-01-29T00:08:12.905Z,22.41
2024-01-29T00:09:12.954Z,22.44
2024-01-29T00:10:12.966Z,22.41
2024-01-29T00:11:13.041Z,22.42
2024-01-29T00:12:13.019Z,22.43
2024-01-29T00:13:12.963Z,22.45
2024-01-29T00:14:12.983Z,22.41
2024-01-29T00:15:12.989Z,22.41
2024-01-29T00:16:12.970Z,22.41
2024-01-29T00:17:12.975Z,22.44
2024-01-29T00:18:12.972Z,22.42
2024-01-29T00:19:13.129Z,22.42
2024-01-29T00:20:13.046Z,22.42
2024-01-29T00:21:12.972Z,22.41
2024-01-29T00:22:12.973Z,22.42
2024-01-29T00:23:12.981Z,22.44
2024-01-29T00:24:12.982Z,22.44
2024-01-29T00:25:13.071Z,22.41
2024-01-29T00:26:12.981Z,22.40
2024-01-29T00:27:12.979Z,22.40
2024-01-29T00:28:13.022Z,22.42
2024-01-29T00:29:13.062Z,22.41
2024-01-29T00:30:13.159Z,22.42
2024-01-29T00:31:13.192Z,22.40
2024-01-29T00:32:13.265Z,22.38
2024-01-29T00:33:13.413Z,22.38
2024-01-29T00:34:13.731Z,22.37
2024-01-29T00:35:13.450Z,22.38
2024-01-29T00:36:13.511Z,22.39
2024-01-29T00:37:13.580Z,22.41
2024-01-29T00:38:13.580Z,22.38
2024-01-29T00:39:13.580Z,22.38
2024-01-29T00:40:13.653Z,22.38
2024-01-29T00:41:13.582Z,22.37
2024-01-29T00:42:13.599Z,22.40
2024-01-29T00:43:13.628Z,22.38
2024-01-29T00:44:13.602Z,22.38
2024-01-29T00:45:13.603Z,22.37
2024-01-29T00:46:13.607Z,22.41
2024-01-29T00:47:13.610Z,22.41
2024-01-29T00:48:13.665Z,22.37
2024-01-29T00:49:13.710Z,22.38
2024-01-29T00:50:13.634Z,22.40
2024-01-29T00:51:13.636Z,22.38
2024-01-29T00:52:13.640Z,22.40
2024-01-29T00:53:13.637Z,22.41
2024-01-29T00:54:13.666Z,22.38
2024-01-29T00:55:13.766Z,22.42
2024-01-29T00:56:13.808Z,22.41
2024-01-29T00:57:13.883Z,22.41
2024-01-29T00:58:13.944Z,22.42
2024-01-29T00:59:14.002Z,22.40
2024-01-29T01:00:14.098Z,22.41
2024-01-29T01:01:14.212Z,22.40
2024-01-29T01:02:14.275Z,22.40
2024-01-29T01:03:14.269Z,22.38
2024-01-29T01:04:14.414Z,22.39
2024-01-29T01:05:14.520Z,22.41
2024-01-29T01:06:14.576Z,22.40
2024-01-29T01:07:14.577Z,22.40
2024-01-29T01:08:14.568Z,22.44
2024-01-29T01:09:14.554Z,22.40
2024-01-29T01:10:14.563Z,22.38
2024-01-29T01:11:14.568Z,22.37
2024-01-29T01:12:14.588Z,22.40
2024-01-29T01:13:14.569Z,22.38
2024-01-29T01:14:14.567Z,22.39
2024-01-29T01:15:14.586Z,22.37
2024-01-29T01:16:14.636Z,22.40
2024-01-29T01:17:14.673Z,22.39
2024-01-29T01:18:14.837Z,22.38
2024-01-29T01:19:14.889Z,22.36
2024-01-29T01:20:14.925Z,22.40
2024-01-29T01:21:14.967Z,22.40
2024-01-29T01:22:15.025Z,22.37
2024-01-29T01:23:15.091Z,22.38
2024-01-29T01:24:15.150Z,22.38
2024-01-29T01:25:15.242Z,22.36
2024-01-29T01:26:15.299Z,22.36
2024-01-29T01:27:15.368Z,22.36
2024-01-29T01:28:15.430Z,22.36
2024-01-29T01:29:15.478Z,22.36
2024-01-29T01:30:15.572Z,22.36
2024-01-29T01:31:15.634Z,22.31
2024-01-29T01:32:15.682Z,22.33
2024-01-29T01:33:15.766Z,22.31
2024-01-29T01:34:15.863Z,22.36
2024-01-29T01:35:15.769Z,22.34
2024-01-29T01:36:15.774Z,22.37
2024-01-29T01:37:15.769Z,22.36
2024-01-29T01:38:15.776Z,22.38
2024-01-29T01:39:15.806Z,22.37
2024-01-29T01:40:15.851Z,22.38
2024-01-29T01:41:15.799Z,22.37
2024-01-29T01:42:15.839Z,22.37
2024-01-29T01:43:15.913Z,22.38
2024-01-29T01:44:15.976Z,22.36
2024-01-29T01:45:16.058Z,22.36
2024-01-29T01:46:16.120Z,22.38
2024-01-29T01:47:16.105Z,22.35
2024-01-29T01:48:16.133Z,22.37
2024-01-29T01:49:16.185Z,22.35
2024-01-29T01:50:16.156Z,22.36
2024-01-29T01:51:16.170Z,22.36
2024-01-29T01:52:16.144Z,22.35
2024-01-29T01:53:16.170Z,22.36
2024-01-29T01:54:16.172Z,22.36
2024-01-29T01:55:16.203Z,22.35
2024-01-29T01:56:16.174Z,22.37
2024-01-29T01:57:16.184Z,22.36
2024-01-29T01:58:16.211Z,22.36
2024-01-29T01:59:16.191Z,22.38
2024-01-29T02:00:16.237Z,22.36
2024-01-29T02:01:16.330Z,22.38
2024-01-29T02:02:16.284Z,22.36
2024-01-29T02:03:16.360Z,22.36
2024-01-29T02:04:16.602Z,22.39
2024-01-29T02:05:16.584Z,22.34
2024-01-29T02:06:16.569Z,22.35
2024-01-29T02:07:16.698Z,22.35
2024-01-29T02:08:16.710Z,22.33
2024-01-29T02:09:16.789Z,22.34
2024-01-29T02:10:16.858Z,22.34
2024-01-29T02:11:16.911Z,22.34
2024-01-29T02:12:16.968Z,22.33
2024-01-29T02:13:17.029Z,22.33
2024-01-29T02:14:17.080Z,22.32
2024-01-29T02:15:17.151Z,22.33
2024-01-29T02:16:17.224Z,22.33
2024-01-29T02:17:17.236Z,22.33
2024-01-29T02:18:17.256Z,22.33
2024-01-29T02:19:17.520Z,22.33
2024-01-29T02:20:17.232Z,22.31
2024-01-29T02:21:17.269Z,22.30
2024-01-29T02:22:17.272Z,22.28
2024-01-29T02:23:17.256Z,22.30
2024-01-29T02:24:17.291Z,22.30
2024-01-29T02:25:17.323Z,22.31
2024-01-29T02:26:17.385Z,22.33
2024-01-29T02:27:17.479Z,22.32
2024-01-29T02:28:17.505Z,22.30
2024-01-29T02:29:17.578Z,22.29
2024-01-29T02:30:17.661Z,22.31
2024-01-29T02:31:17.841Z,22.31
2024-01-29T02:32:17.798Z,22.32
2024-01-29T02:33:17.951Z,22.33
2024-01-29T02:34:18.126Z,22.30
2024-01-29T02:35:17.974Z,22.30
2024-01-29T02:36:17.961Z,22.32
2024-01-29T02:37:17.956Z,22.32
2024-01-29T02:38:17.996Z,22.31
2024-01-29T02:39:17.996Z,22.33
2024-01-29T02:40:18.024Z,22.32
2024-01-29T02:41:17.984Z,22.32
2024-01-29T02:42:17.993Z,22.33
2024-01-29T02:43:18.029Z,22.32
2024-01-29T02:44:18.100Z,22.33
2024-01-29T02:45:18.169Z,22.32
2024-01-29T02:46:18.237Z,22.32
2024-01-29T02:47:18.310Z,22.32
2024-01-29T02:48:18.479Z,22.31
2024-01-29T02:49:18.616Z,22.30
2024-01-29T02:50:18.548Z,22.30
2024-01-29T02:51:18.570Z,22.29
2024-01-29T02:52:18.633Z,22.29
2024-01-29T02:53:18.672Z,22.27
2024-01-29T02:54:18.736Z,22.28
2024-01-29T02:55:18.754Z,22.28
2024-01-29T02:56:18.748Z,22.25
2024-01-29T02:57:18.746Z,22.29
2024-01-29T02:58:18.783Z,22.27
2024-01-29T02:59:18.762Z,22.27
2024-01-29T03:00:18.766Z,22.27
2024-01-29T03:01:18.838Z,22.27
2024-01-29T03:02:18.789Z,22.29
2024-01-29T03:03:18.924Z,22.28
2024-01-29T03:04:18.984Z,22.29
2024-01-29T03:05:19.061Z,22.30
2024-01-29T03:06:19.099Z,22.30
2024-01-29T03:07:19.079Z,22.30
2024-01-29T03:08:19.090Z,22.24
2024-01-29T03:09:19.092Z,22.28
2024-01-29T03:10:19.109Z,22.28
2024-01-29T03:11:19.097Z,22.27
2024-01-29T03:12:19.123Z,22.27
2024-01-29T03:13:19.116Z,22.28
2024-01-29T03:14:19.131Z,22.27
2024-01-29T03:15:19.166Z,22.29
2024-01-29T03:16:19.218Z,22.30
2024-01-29T03:17:19.303Z,22.29
2024-01-29T03:18:19.472Z,22.29
2024-01-29T03:19:19.520Z,22.28
2024-01-29T03:20:19.516Z,22.26
2024-01-29T03:21:19.582Z,22.26
2024-01-29T03:22:19.647Z,22.28
2024-01-29T03:23:19.722Z,22.27
2024-01-29T03:24:19.723Z,22.27
2024-01-29T03:25:19.728Z,22.28
2024-01-29T03:26:19.735Z,22.27
2024-01-29T03:27:19.733Z,22.27
2024-01-29T03:28:19.748Z,22.27
2024-01-29T03:29:19.772Z,22.27
2024-01-29T03:30:19.748Z,22.29
2024-01-29T03:31:19.739Z,22.29
2024-01-29T03:32:19.836Z,22.27
2024-01-29T03:33:20.028Z,22.30
2024-01-29T03:34:20.064Z,22.29
2024-01-29T03:35:20.017Z,22.27
2024-01-29T03:36:20.086Z,22.27
2024-01-29T03:37:20.173Z,22.29
2024-01-29T03:38:20.266Z,22.29
2024-01-29T03:39:20.321Z,22.29
2024-01-29T03:40:20.367Z,22.22
2024-01-29T03:41:20.439Z,22.25
2024-01-29T03:42:20.521Z,22.25
2024-01-29T03:43:20.578Z,22.28
2024-01-29T03:44:20.594Z,22.28
2024-01-29T03:45:20.604Z,22.26
2024-01-29T03:46:20.621Z,22.28
2024-01-29T03:47:20.619Z,22.27
2024-01-29T03:48:20.676Z,22.26
2024-01-29T03:49:20.797Z,22.28
2024-01-29T03:50:20.681Z,22.28
2024-01-29T03:51:20.640Z,22.29
2024-01-29T03:52:20.670Z,22.29
2024-01-29T03:53:20.730Z,22.27
2024-01-29T03:54:20.805Z,22.28
2024-01-29T03:55:20.922Z,22.27
2024-01-29T03:56:20.825Z,22.28
2024-01-29T03:57:20.838Z,22.26
2024-01-29T03:58:20.836Z,22.25
2024-01-29T03:59:20.851Z,22.28
2024-01-29T04:00:20.846Z,22.28
2024-01-29T04:01:20.901Z,22.24
2024-01-29T04:02:20.864Z,22.20
2024-01-29T04:03:20.931Z,22.25
2024-01-29T04:04:21.183Z,22.28
2024-01-29T04:05:21.143Z,22.25
2024-01-29T04:06:21.127Z,22.26
2024-01-29T04:07:21.191Z,22.25
2024-01-29T04:08:21.194Z,22.26
2024-01-29T04:09:21.333Z,22.27
2024-01-29T04:10:21.347Z,22.27
2024-01-29T04:11:21.436Z,22.29
2024-01-29T04:12:28.669Z,22.29
2024-01-29T04:13:28.646Z,22.26
2024-01-29T04:14:28.692Z,22.26
2024-01-29T04:15:28.736Z,22.24
2024-01-29T04:16:28.687Z,22.27
2024-01-29T04:17:28.715Z,22.27
2024-01-29T04:18:28.867Z,22.26
2024-01-29T04:19:28.810Z,22.26
2024-01-29T04:20:28.779Z,22.23
2024-01-29T04:21:28.788Z,22.24
2024-01-29T04:22:28.784Z,22.20
2024-01-29T04:23:28.836Z,22.22
2024-01-29T04:24:28.909Z,22.24
2024-01-29T04:25:28.991Z,22.24
2024-01-29T04:26:29.057Z,22.23
2024-01-29T04:27:29.146Z,22.25
2024-01-29T04:28:29.216Z,22.24
2024-01-29T04:29:29.305Z,22.22
2024-01-29T04:30:29.419Z,22.23
2024-01-29T04:31:36.627Z,22.28
2024-01-29T04:32:36.646Z,22.27
2024-01-29T04:33:36.678Z,22.24
2024-01-29T04:34:36.737Z,22.26
2024-01-29T04:35:36.753Z,22.25
2024-01-29T04:36:36.796Z,22.24
2024-01-29T04:37:36.837Z,22.23
2024-01-29T04:38:36.855Z,22.24
2024-01-29T04:39:36.955Z,22.23
2024-01-29T04:40:36.958Z,22.25
2024-01-29T04:41:37.000Z,22.21
2024-01-29T04:42:37.071Z,22.22
2024-01-29T04:43:37.065Z,22.16
2024-01-29T04:44:37.125Z,22.15
2024-01-29T04:45:37.241Z,22.18
2024-01-29T04:46:37.197Z,22.18
2024-01-29T04:47:37.281Z,22.18
2024-01-29T04:48:37.373Z,22.14
2024-01-29T04:49:37.347Z,22.17
2024-01-29T04:50:37.353Z,22.16
2024-01-29T04:51:37.476Z,22.17
2024-01-29T04:52:37.444Z,22.17
2024-01-29T04:53:37.482Z,22.16
2024-01-29T04:54:37.564Z,22.17
2024-01-29T04:55:37.560Z,22.17
2024-01-29T04:56:37.586Z,22.16
2024-01-29T04:57:37.650Z,22.18
2024-01-29T04:58:37.685Z,22.19
2024-01-29T04:59:37.729Z,22.19
2024-01-29T05:00:37.833Z,22.17
2024-01-29T05:01:37.928Z,22.17
2024-01-29T05:02:37.870Z,22.16
2024-01-29T05:03:37.886Z,22.14
2024-01-29T05:04:38.011Z,22.15
2024-01-29T05:05:37.965Z,22.14
2024-01-29T05:06:38.031Z,22.14
2024-01-29T05:07:38.048Z,22.14
2024-01-29T05:08:38.104Z,22.15
2024-01-29T05:09:38.246Z,22.15
2024-01-29T05:10:40.020Z,22.13
2024-01-29T05:11:38.375Z,22.13
2024-01-29T05:12:38.492Z,22.12
2024-01-29T05:13:38.566Z,22.12
2024-01-29T05:14:38.653Z,22.15
2024-01-29T05:15:38.719Z,22.16
2024-01-29T05:16:38.707Z,22.16
2024-01-29T05:17:38.762Z,22.15
2024-01-29T05:18:38.850Z,22.13
2024-01-29T05:19:38.859Z,22.12
2024-01-29T05:20:38.847Z,22.11
2024-01-29T05:21:38.883Z,22.12
2024-01-29T05:22:38.904Z,22.12
2024-01-29T05:23:38.960Z,22.13
2024-01-29T05:24:39.013Z,22.15
2024-01-29T05:25:39.062Z,22.14
2024-01-29T05:26:39.067Z,22.15
2024-01-29T05:27:39.211Z,22.12
2024-01-29T05:28:39.131Z,22.15
2024-01-29T05:29:39.174Z,22.14
2024-01-29T05:30:39.221Z,22.12
2024-01-29T05:31:39.241Z,22.13
2024-01-29T05:32:39.429Z,22.07
2024-01-29T05:33:39.484Z,22.12
2024-01-29T05:34:39.582Z,22.12
2024-01-29T05:35:39.566Z,22.11
2024-01-29T05:36:39.662Z,22.12
2024-01-29T05:37:39.747Z,22.12
2024-01-29T05:38:39.797Z,22.12
2024-01-29T05:39:39.980Z,22.12
2024-01-29T05:40:40.007Z,22.11
2024-01-29T05:41:40.077Z,22.11
2024-01-29T05:42:40.240Z,22.11
2024-01-29T05:43:40.260Z,22.10
2024-01-29T05:44:40.358Z,22.10
2024-01-29T05:45:40.526Z,22.12
2024-01-29T05:46:40.529Z,22.11
2024-01-29T05:47:40.684Z,22.09
2024-01-29T05:48:40.848Z,22.10
2024-01-29T05:49:40.769Z,22.10
2024-01-29T05:50:40.797Z,22.09
2024-01-29T05:51:40.822Z,22.08
2024-01-29T05:52:40.854Z,22.07
2024-01-29T05:53:40.880Z,22.06
2024-01-29T05:54:40.959Z,22.03
2024-01-29T05:55:40.946Z,22.03
2024-01-29T05:56:40.978Z,22.03
2024-01-29T05:57:41.031Z,22.04
2024-01-29T05:58:41.036Z,22.03
2024-01-29T05:59:41.102Z,22.03
2024-01-29T06:00:41.183Z,22.01
2024-01-29T06:01:41.343Z,22.02
2024-01-29T06:02:41.300Z,22.04
2024-01-29T06:03:41.379Z,22.02
2024-01-29T06:04:41.366Z,22.02
2024-01-29T06:05:41.415Z,21.98
2024-01-29T06:06:41.553Z,22.00
2024-01-29T06:07:41.545Z,21.99
2024-01-29T06:08:41.518Z,22.00
2024-01-29T06:09:41.530Z,21.99
2024-01-29T06:10:41.539Z,21.98
2024-01-29T06:11:41.588Z,22.00
2024-01-29T06:12:41.654Z,21.98
2024-01-29T06:13:41.738Z,21.96
2024-01-29T06:14:41.689Z,21.96
2024-01-29T06:15:41.833Z,21.96
2024-01-29T06:16:41.845Z,21.96
2024-01-29T06:17:42.060Z,21.96
2024-01-29T06:18:42.136Z,21.94
2024-01-29T06:19:53.967Z,21.94
2024-01-29T06:20:43.191Z,21.98
2024-01-29T06:21:42.231Z,21.96
2024-01-29T06:22:42.227Z,21.97
2024-01-29T06:23:42.270Z,21.96
2024-01-29T06:24:42.299Z,21.99
2024-01-29T06:25:42.326Z,21.96
2024-01-29T06:26:42.356Z,21.95
2024-01-29T06:27:42.671Z,21.94
2024-01-29T06:28:42.416Z,21.93
2024-01-29T06:29:42.539Z,21.91
2024-01-29T06:30:42.667Z,21.91
2024-01-29T06:31:42.672Z,21.92
2024-01-29T06:32:42.774Z,21.93
2024-01-29T06:33:42.866Z,22.49
2024-01-29T06:34:43.115Z,22.68
2024-01-29T06:35:42.933Z,23.21
2024-01-29T06:36:42.977Z,23.52
2024-01-29T06:37:42.933Z,24.23
2024-01-29T06:38:42.972Z,24.67
2024-01-29T06:39:43.021Z,24.95
2024-01-29T06:40:43.091Z,25.12
2024-01-29T06:41:43.060Z,25.41
2024-01-29T06:42:43.151Z,25.69
2024-01-29T06:43:43.193Z,26.10
2024-01-29T06:44:43.307Z,25.92
2024-01-29T06:45:43.337Z,26.44
2024-01-29T06:46:43.566Z,26.41
2024-01-29T06:47:43.504Z,26.63
2024-01-29T06:48:43.558Z,27.21
2024-01-29T06:49:43.552Z,26.97
2024-01-29T06:50:43.565Z,26.83
2024-01-29T06:51:43.590Z,26.87
2024-01-29T06:52:43.618Z,26.69
2024-01-29T06:53:43.674Z,26.07
2024-01-29T06:54:43.786Z,25.98
2024-01-29T06:55:43.807Z,25.94
2024-01-29T06:56:43.732Z,25.83
2024-01-29T06:57:43.779Z,25.62
2024-01-29T06:58:43.919Z,22.92
2024-01-29T06:59:43.831Z,22.00
2024-01-29T07:00:44.024Z,22.51
2024-01-29T07:01:44.073Z,22.54
2024-01-29T07:02:43.991Z,23.89
2024-01-29T07:03:44.104Z,22.26
2024-01-29T07:04:44.195Z,23.10
2024-01-29T07:05:44.164Z,22.25
2024-01-29T07:06:44.189Z,22.41
2024-01-29T07:07:44.247Z,22.60
2024-01-29T07:08:44.321Z,21.63
2024-01-29T07:09:45.268Z,22.02
2024-01-29T07:10:44.413Z,21.18
2024-01-29T07:11:44.562Z,20.33
2024-01-29T07:12:44.656Z,20.90
2024-01-29T07:13:44.603Z,21.04
2024-01-29T07:14:44.653Z,20.80
2024-01-29T07:15:44.778Z,20.35
2024-01-29T07:16:44.782Z,20.69
2024-01-29T07:17:44.893Z,20.97
2024-01-29T07:18:44.956Z,20.53
2024-01-29T07:19:45.066Z,20.72
2024-01-29T07:20:45.055Z,20.90
2024-01-29T07:21:45.123Z,20.55
2024-01-29T07:22:45.193Z,20.18
2024-01-29T07:23:45.229Z,19.77
2024-01-29T07:24:45.250Z,19.74
2024-01-29T07:25:45.304Z,19.47
2024-01-29T07:26:45.381Z,19.27
2024-01-29T07:27:45.477Z,19.37
2024-01-29T07:28:45.560Z,18.82
2024-01-29T07:29:45.659Z,18.89
2024-01-29T07:30:45.732Z,19.18
2024-01-29T07:31:45.733Z,20.43
2024-01-29T07:32:45.875Z,20.79
2024-01-29T07:33:46.078Z,21.05
2024-01-29T07:34:48.502Z,21.51
2024-01-29T07:35:46.002Z,21.82
2024-01-29T07:36:46.037Z,22.02
2024-01-29T07:37:46.075Z,22.16
2024-01-29T07:38:46.105Z,22.45
2024-01-29T07:39:46.203Z,22.76
2024-01-29T07:40:46.181Z,22.99
2024-01-29T07:41:46.245Z,23.30
2024-01-29T07:42:46.297Z,23.56
2024-01-29T07:43:46.325Z,23.72
2024-01-29T07:44:46.374Z,23.87
2024-01-29T07:45:46.461Z,23.92
2024-01-29T07:46:46.642Z,24.15
2024-01-29T07:47:46.955Z,24.35
2024-01-29T07:48:46.631Z,24.39
2024-01-29T07:49:46.637Z,24.58
2024-01-29T07:50:46.671Z,24.86
2024-01-29T07:51:46.671Z,25.24
2024-01-29T07:52:46.678Z,25.39
2024-01-29T07:53:46.694Z,25.59
2024-01-29T07:54:46.774Z,25.60
2024-01-29T07:55:46.793Z,25.66
2024-01-29T07:56:46.851Z,25.55
2024-01-29T07:57:46.865Z,25.33
2024-01-29T07:58:46.986Z,25.53
2024-01-29T07:59:47.781Z,25.51
2024-01-29T08:00:47.251Z,25.61
2024-01-29T08:01:47.297Z,25.52
2024-01-29T08:02:47.105Z,25.79
2024-01-29T08:03:47.137Z,25.81
2024-01-29T08:04:47.336Z,25.76
2024-01-29T08:05:47.170Z,25.79
2024-01-29T08:06:47.167Z,25.64
2024-01-29T08:07:47.178Z,25.67
2024-01-29T08:08:47.218Z,25.80
2024-01-29T08:09:47.289Z,25.87
2024-01-29T08:10:47.355Z,25.66
2024-01-29T08:11:47.426Z,25.69
2024-01-29T08:12:47.567Z,26.10
2024-01-29T08:13:47.582Z,26.00
2024-01-29T08:14:47.601Z,25.99
2024-01-29T08:15:47.687Z,26.12
2024-01-29T08:16:47.662Z,26.03
2024-01-29T08:17:47.844Z,25.98
2024-01-29T08:18:47.913Z,26.04
2024-01-29T08:19:47.882Z,26.04
2024-01-29T08:20:47.934Z,26.04
2024-01-29T08:21:47.877Z,26.01
2024-01-29T08:22:47.814Z,26.19
2024-01-29T08:23:47.864Z,26.08
2024-01-29T08:24:49.106Z,26.04
2024-01-29T08:25:47.906Z,26.50
2024-01-29T08:26:47.929Z,26.42
2024-01-29T08:27:48.000Z,25.98
2024-01-29T08:28:48.004Z,24.49
2024-01-29T08:29:48.049Z,23.39
2024-01-29T08:30:48.229Z,21.62
2024-01-29T08:31:48.248Z,22.65
2024-01-29T08:32:48.471Z,23.12
2024-01-29T08:33:48.563Z,23.49
2024-01-29T08:34:48.730Z,23.54
2024-01-29T08:35:48.643Z,23.76
2024-01-29T08:36:48.798Z,23.92
2024-01-29T08:37:48.826Z,24.18
2024-01-29T08:38:48.914Z,24.08
2024-01-29T08:39:49.020Z,24.19
2024-01-29T08:40:49.059Z,24.26
2024-01-29T08:41:49.120Z,24.38
2024-01-29T08:42:49.214Z,24.52
2024-01-29T08:43:49.253Z,24.54
2024-01-29T08:44:49.331Z,24.69
2024-01-29T08:45:49.522Z,24.55
2024-01-29T08:46:49.445Z,24.62
2024-01-29T08:47:49.548Z,24.40
2024-01-29T08:48:49.572Z,24.79
2024-01-29T08:49:49.639Z,24.73
2024-01-29T08:50:49.663Z,24.83
2024-01-29T08:51:49.776Z,24.86
2024-01-29T08:52:49.754Z,24.97
2024-01-29T08:53:49.820Z,24.88
2024-01-29T08:54:49.932Z,24.98
2024-01-29T08:55:50.145Z,24.84
2024-01-29T08:56:49.926Z,24.51
2024-01-29T08:57:49.952Z,24.42
2024-01-29T08:58:49.960Z,24.40
2024-01-29T08:59:50.008Z,24.41
2024-01-29T09:00:50.030Z,24.46
2024-01-29T09:01:50.245Z,24.52
2024-01-29T09:02:50.081Z,24.75
2024-01-29T09:03:50.174Z,24.72
2024-01-29T09:04:50.184Z,24.83
2024-01-29T09:05:50.169Z,24.96
2024-01-29T09:06:50.326Z,24.93
2024-01-29T09:07:50.199Z,25.04
2024-01-29T09:08:50.264Z,24.94
2024-01-29T09:09:50.295Z,24.92
2024-01-29T09:10:50.305Z,25.22
2024-01-29T09:11:50.297Z,25.12
2024-01-29T09:12:50.453Z,25.15
2024-01-29T09:13:50.347Z,25.24
2024-01-29T09:14:50.382Z,25.23
2024-01-29T09:15:50.446Z,25.32
2024-01-29T09:16:50.448Z,25.07
2024-01-29T09:17:50.490Z,24.57
2024-01-29T09:18:51.333Z,23.84
2024-01-29T09:19:50.543Z,23.22
2024-01-29T09:20:50.573Z,23.14
2024-01-29T09:21:50.657Z,23.05
2024-01-29T09:22:50.651Z,22.89
2024-01-29T09:23:50.688Z,22.73
2024-01-29T09:24:50.811Z,21.77
2024-01-29T09:25:50.748Z,21.91
2024-01-29T09:26:50.787Z,21.26
2024-01-29T09:27:50.908Z,21.62
2024-01-29T09:28:50.970Z,21.55
2024-01-29T09:29:50.900Z,21.71
2024-01-29T09:30:51.013Z,21.79
2024-01-29T09:31:51.034Z,21.84
2024-01-29T09:32:51.029Z,22.03
2024-01-29T09:33:51.174Z,22.09
2024-01-29T09:34:51.143Z,22.19
2024-01-29T09:35:51.202Z,22.41
2024-01-29T09:36:51.145Z,22.58
2024-01-29T09:37:51.221Z,22.66
2024-01-29T09:38:51.275Z,22.66
2024-01-29T09:39:51.373Z,22.80
2024-01-29T09:40:51.437Z,22.95
2024-01-29T09:41:51.506Z,23.12
2024-01-29T09:42:51.546Z,23.11
2024-01-29T09:43:51.603Z,22.85
2024-01-29T09:44:51.677Z,22.89
2024-01-29T09:45:51.832Z,23.12
2024-01-29T09:46:51.785Z,23.10
2024-01-29T09:47:51.997Z,23.07
2024-01-29T09:48:52.204Z,23.40
2024-01-29T09:49:52.010Z,23.76
2024-01-29T09:50:51.994Z,24.06
2024-01-29T09:51:52.110Z,24.33
2024-01-29T09:52:53.484Z,24.29
2024-01-29T09:53:52.311Z,24.06
2024-01-29T09:54:52.532Z,24.08
2024-01-29T09:55:52.405Z,24.02
2024-01-29T09:56:52.460Z,24.03
2024-01-29T09:57:52.581Z,23.93
2024-01-29T09:58:53.327Z,24.11
2024-01-29T09:59:52.612Z,24.06
2024-01-29T10:00:52.704Z,24.14
2024-01-29T10:01:52.882Z,24.20
2024-01-29T10:02:52.822Z,24.28
2024-01-29T10:03:52.836Z,24.11
2024-01-29T10:04:52.848Z,24.21
2024-01-29T10:05:52.901Z,24.08
2024-01-29T10:06:52.990Z,24.17
2024-01-29T10:07:53.003Z,24.16
2024-01-29T10:08:53.042Z,24.13
2024-01-29T10:09:53.059Z,24.01
2024-01-29T10:10:53.073Z,23.67
2024-01-29T10:11:53.077Z,23.80
2024-01-29T10:12:53.067Z,23.87
2024-01-29T10:13:53.096Z,23.86
2024-01-29T10:14:53.138Z,23.85
2024-01-29T10:15:53.290Z,24.01
2024-01-29T10:16:53.200Z,23.96
2024-01-29T10:17:53.267Z,24.04
2024-01-29T10:18:53.313Z,24.20
2024-01-29T10:19:53.385Z,24.18
2024-01-29T10:20:53.305Z,24.15
2024-01-29T10:21:53.338Z,24.17
2024-01-29T10:22:53.342Z,24.22
2024-01-29T10:23:53.377Z,24.22
2024-01-29T10:24:53.509Z,24.30
2024-01-29T10:25:53.402Z,24.39
2024-01-29T10:26:53.426Z,24.38
2024-01-29T10:27:53.533Z,24.27
2024-01-29T10:30:20.871Z,25.36
2024-01-29T10:30:58.811Z,24.60
2024-01-29T10:31:57.941Z,24.53
2024-01-29T10:32:58.105Z,24.65
2024-01-29T10:33:58.200Z,24.56
2024-01-29T10:34:58.193Z,24.51
2024-01-29T10:35:58.213Z,24.43
2024-01-29T10:36:58.132Z,24.48
2024-01-29T10:37:58.102Z,24.49
2024-01-29T10:38:58.146Z,24.57
2024-01-29T10:40:00.338Z,24.61
2024-01-29T10:40:58.361Z,24.76
2024-01-29T10:41:58.412Z,24.75
2024-01-29T10:42:58.336Z,24.80
2024-01-29T10:43:58.454Z,25.02
2024-01-29T10:44:58.351Z,24.73
2024-01-29T10:45:58.448Z,24.44
2024-01-29T10:46:58.398Z,24.52
2024-01-29T10:48:21.417Z,24.39
2024-01-29T10:48:58.404Z,24.21
2024-01-29T10:49:58.460Z,24.13
2024-01-29T10:50:58.371Z,24.09
2024-01-29T10:51:58.563Z,24.10
2024-01-29T10:58:18.128Z,25.14
2024-01-29T10:58:44.696Z,24.94
2024-01-29T10:59:23.589Z,24.20
2024-01-29T11:00:23.633Z,24.28
2024-01-29T11:01:23.762Z,24.23
2024-01-29T11:02:23.788Z,24.19
2024-01-29T11:03:23.731Z,24.26
2024-01-29T11:04:23.825Z,24.29
2024-01-29T11:05:23.813Z,24.30
2024-01-29T11:06:23.801Z,24.28
2024-01-29T11:07:23.829Z,24.26
2024-01-29T11:08:23.847Z,24.36
2024-01-29T11:09:23.890Z,24.34
2024-01-29T11:10:23.936Z,24.42
2024-01-29T11:11:23.922Z,24.54
2024-01-29T11:12:23.924Z,24.61
2024-01-29T11:13:23.960Z,24.67
2024-01-29T11:14:24.047Z,24.69
2024-01-29T11:15:23.987Z,24.77
2024-01-29T11:16:24.004Z,24.82
2024-01-29T11:17:24.030Z,24.80
2024-01-29T11:18:24.157Z,24.80
2024-01-29T11:19:24.176Z,24.75
2024-01-29T11:20:24.129Z,24.85
2024-01-29T11:21:24.181Z,24.78
2024-01-29T11:22:24.212Z,24.88
2024-01-29T11:23:28.528Z,24.99
2024-01-29T11:24:25.275Z,25.04
2024-01-29T11:25:24.318Z,25.01
2024-01-29T11:26:24.362Z,24.96
2024-01-29T11:27:24.375Z,25.09
2024-01-29T11:28:24.487Z,25.14
2024-01-29T11:29:24.448Z,25.24
2024-01-29T11:30:24.491Z,25.21
2024-01-29T11:31:24.531Z,25.20
2024-01-29T11:32:24.547Z,25.30
2024-01-29T11:33:24.662Z,25.24
2024-01-29T11:34:24.635Z,25.31
2024-01-29T11:35:31.342Z,25.35
2024-01-29T11:36:25.632Z,25.30
2024-01-29T11:37:24.690Z,25.46
2024-01-29T11:38:24.733Z,25.43
2024-01-29T11:39:24.687Z,25.14
2024-01-29T11:40:24.703Z,25.30
2024-01-29T11:41:24.723Z,24.81
2024-01-29T11:42:24.761Z,23.64
2024-01-29T11:43:24.809Z,24.09
2024-01-29T11:44:24.825Z,23.62
2024-01-29T11:45:24.850Z,23.63
2024-01-29T11:46:24.948Z,23.37
2024-01-29T11:47:24.933Z,22.75
2024-01-29T11:48:25.068Z,22.83
2024-01-29T11:49:25.188Z,22.74
2024-01-29T11:50:24.994Z,22.63
2024-01-29T11:51:25.063Z,22.40
2024-01-29T11:52:25.210Z,22.40
2024-01-29T11:53:25.248Z,22.04
2024-01-29T11:54:25.324Z,21.92
2024-01-29T11:57:02.513Z,22.12
2024-01-29T11:57:25.469Z,21.80
2024-01-29T11:58:25.495Z,21.56
2024-01-29T11:59:25.536Z,21.57
2024-01-29T12:00:25.933Z,21.69
2024-01-29T12:01:25.790Z,21.72
2024-01-29T12:02:25.629Z,21.82
2024-01-29T12:03:25.756Z,22.02
2024-01-29T12:04:46.734Z,22.11
2024-01-29T12:05:26.050Z,22.45
2024-01-29T12:06:25.744Z,22.75
2024-01-29T12:07:25.866Z,22.71
2024-01-29T12:08:25.825Z,22.59
2024-01-29T12:09:25.805Z,22.74
2024-01-29T12:10:25.838Z,22.74
2024-01-29T12:11:25.858Z,22.89
2024-01-29T12:12:25.861Z,23.05
2024-01-29T12:13:25.883Z,23.02
2024-01-29T12:14:25.898Z,23.16
2024-01-29T12:15:25.920Z,23.26
2024-01-29T12:16:25.989Z,23.46
2024-01-29T12:17:25.964Z,23.56
2024-01-29T12:18:26.076Z,23.62
2024-01-29T12:19:26.074Z,23.86
2024-01-29T12:20:26.104Z,24.01
2024-01-29T12:21:26.092Z,24.08
2024-01-29T12:22:26.123Z,24.13
2024-01-29T12:23:26.996Z,24.37
2024-01-29T12:24:26.156Z,24.39
2024-01-29T12:25:26.207Z,24.37
2024-01-29T12:26:26.198Z,24.50
2024-01-29T12:27:26.250Z,24.47
2024-01-29T12:28:26.274Z,24.66
2024-01-29T12:29:26.262Z,24.73
2024-01-29T12:30:26.361Z,24.52
2024-01-29T12:31:28.966Z,24.58
2024-01-29T12:32:26.610Z,24.88
2024-01-29T12:33:26.658Z,24.75
2024-01-29T12:34:26.829Z,24.63
2024-01-29T12:35:31.710Z,24.54
2024-01-29T12:36:26.729Z,24.39
2024-01-29T12:37:26.741Z,24.44
2024-01-29T12:38:26.842Z,24.50
2024-01-29T12:39:26.784Z,24.58
2024-01-29T12:40:26.793Z,24.47
2024-01-29T12:41:26.793Z,24.38
2024-01-29T12:42:26.826Z,24.41
2024-01-29T12:43:26.863Z,24.40
2024-01-29T12:44:26.862Z,24.25
2024-01-29T12:45:26.893Z,24.07
2024-01-29T12:46:27.196Z,24.01
2024-01-29T12:47:26.999Z,24.11
2024-01-29T12:48:27.035Z,24.05
2024-01-29T12:49:27.188Z,24.19
2024-01-29T12:50:27.186Z,24.16
2024-01-29T12:51:27.043Z,24.00
2024-01-29T12:52:27.120Z,23.97
2024-01-29T12:53:27.242Z,24.24
2024-01-29T12:54:27.320Z,24.38
2024-01-29T12:55:27.390Z,24.17
2024-01-29T12:56:27.456Z,24.09
2024-01-29T12:57:27.541Z,24.01
2024-01-29T12:58:27.611Z,24.01
2024-01-29T12:59:27.719Z,24.03